Terminal Aerodrome Forecast
Issued by NWS Milwaukee/Sullivan, WI

Home | Current Version | Previous Version | Text Only | Print | Product List | Glossary On
Versions: 1 2 3 4 5 6 7 8 9 10 11 12 13 14 15 16 17 18 19 20 21 22 23 24 25 26 27 28 29 30 31 32 33 34 35 36 37 38 39 40 41 42 43 44 45 46 47
000
FTUS43 KMKX 181120
TAFMKE
TAF
KMKE 181120Z 1812/1918 02009KT P6SM SCT250
     FM181400 02013G20KT 5SM BR SCT250
     FM181600 02015KT P6SM SCT250
     FM190000 04011KT P6SM BKN070
     FM190400 07008KT P6SM BKN070
     FM190600 10011KT P6SM BKN060
     FM191700 10010KT P6SM OVC030=

USA.gov is the U.S. government's official web portal to all federal, state and local government web resources and services.